Time,TemperatureF,DewpointF,PressureIn,WindDirection,WindDirectionDegrees,WindSpeedMPH,WindSpeedGustMPH,Humidity,HourlyPrecipIn,Conditions,Clouds,dailyrainin,SoftwareType,DateUTC
2013-04-05 00:41:00,36.8,35.0,29.96,WNW,286,0.0,2.0,94,0.00,,,0.81,weatherlink.com 1.10,2013-04-05 04:41:00,
2013-04-05 00:56:00,36.8,35.0,29.96,NW,310,0.0,3.0,94,0.00,,,0.81,weatherlink.com 1.10,2013-04-05 04:56:00,
2013-04-05 01:11:00,36.8,36.0,29.96,WNW,293,0.0,4.0,95,0.00,,,0.81,weatherlink.com 1.10,2013-04-05 05:11:00,
2013-04-05 01:26:00,36.8,36.0,29.95,SSW,192,0.0,1.0,95,0.00,,,0.81,weatherlink.com 1.10,2013-04-05 05:26:00,
2013-04-05 01:41:00,36.8,36.0,29.95,NNW,347,0.0,2.0,95,0.00,,,0.81,weatherlink.com 1.10,2013-04-05 05:41:00,
2013-04-05 01:56:00,36.8,36.0,29.96,ENE,71,0.0,3.0,95,0.00,,,0.81,weatherlink.com 1.10,2013-04-05 05:56:00,
2013-04-05 02:11:00,36.8,36.0,29.95,ENE,78,0.0,3.0,95,0.00,,,0.00,weatherlink.com 1.10,2013-04-05 06:11:00,
2013-04-05 02:26:00,36.8,36.0,29.95,SW,228,0.0,2.0,95,0.00,,,0.00,weatherlink.com 1.10,2013-04-05 06:26:00,
2013-04-05 02:41:00,36.8,36.0,29.94,East,79,1.0,3.0,95,0.00,,,0.00,weatherlink.com 1.10,2013-04-05 06:41:00,
2013-04-05 02:56:00,36.8,36.0,29.94,East,98,0.0,1.0,95,0.00,,,0.00,weatherlink.com 1.10,2013-04-05 06:56:00,
2013-04-05 03:26:00,37.0,36.0,29.94,WNW,302,0.0,1.0,95,0.00,,,0.00,weatherlink.com 1.10,2013-04-05 07:26:00,
2013-04-05 03:41:00,37.2,36.0,29.94,North,360,0.0,1.0,95,0.00,,,0.00,weatherlink.com 1.10,2013-04-05 07:41:00,
2013-04-05 03:56:00,37.2,36.0,29.93,NE,49,0.0,4.0,95,0.00,,,0.00,weatherlink.com 1.10,2013-04-05 07:56:00,
2013-04-05 04:12:00,37.3,36.0,29.93,West,261,0.0,4.0,95,0.00,,,0.00,weatherlink.com 1.10,2013-04-05 08:12:00,
2013-04-05 04:27:00,37.3,36.0,29.93,NW,325,0.0,3.0,95,0.00,,,0.00,weatherlink.com 1.10,2013-04-05 08:27:00,
2013-04-05 04:42:00,37.5,36.0,29.92,ENE,78,0.0,0.0,95,0.00,,,0.00,weatherlink.com 1.10,2013-04-05 08:42:00,
2013-04-05 04:57:00,37.6,36.0,29.91,ENE,61,0.0,2.0,95,0.00,,,0.00,weatherlink.com 1.10,2013-04-05 08:57:00,
2013-04-05 05:12:00,37.8,37.0,29.91,WNW,289,0.0,2.0,95,0.00,,,0.00,weatherlink.com 1.10,2013-04-05 09:12:00,
2013-04-05 05:27:00,38.0,37.0,29.91,WNW,300,1.0,2.0,95,0.00,,,0.00,weatherlink.com 1.10,2013-04-05 09:27:00,
2013-04-05 05:42:00,38.3,37.0,29.92,SE,128,0.0,2.0,95,0.00,,,0.00,weatherlink.com 1.10,2013-04-05 09:42:00,
2013-04-05 05:57:00,38.5,37.0,29.92,SE,128,1.0,1.0,95,0.00,,,0.00,weatherlink.com 1.10,2013-04-05 09:57:00,
2013-04-05 06:12:00,38.6,37.0,29.92,NE,43,0.0,1.0,95,0.00,,,0.00,weatherlink.com 1.10,2013-04-05 10:12:00,
2013-04-05 06:27:00,38.8,38.0,29.94,NE,43,0.0,0.0,95,0.00,,,0.00,weatherlink.com 1.10,2013-04-05 10:27:00,
2013-04-05 06:42:00,38.9,38.0,29.95,East,81,0.0,2.0,95,0.00,,,0.00,weatherlink.com 1.10,2013-04-05 10:42:00,
2013-04-05 06:57:00,39.2,38.0,29.96,East,81,0.0,0.0,95,0.00,,,0.00,weatherlink.com 1.10,2013-04-05 10:57:00,
2013-04-05 07:12:00,39.3,38.0,29.96,NNW,338,0.0,1.0,95,0.00,,,0.00,weatherlink.com 1.10,2013-04-05 11:12:00,
2013-04-05 07:27:00,39.5,38.0,29.96,NNE,26,0.0,1.0,95,0.00,,,0.00,weatherlink.com 1.10,2013-04-05 11:27:00,
2013-04-05 07:42:00,39.8,39.0,29.96,North,11,0.0,0.0,95,0.00,,,0.00,weatherlink.com 1.10,2013-04-05 11:42:00,
2013-04-05 07:57:00,40.1,39.0,29.96,North,11,0.0,0.0,95,0.00,,,0.00,weatherlink.com 1.10,2013-04-05 11:57:00,
2013-04-05 08:12:00,40.5,39.0,29.97,East,88,0.0,2.0,95,0.00,,,0.00,weatherlink.com 1.10,2013-04-05 12:12:00,
2013-04-05 08:27:00,40.8,39.0,29.97,ENE,74,0.0,4.0,94,0.00,,,0.00,weatherlink.com 1.10,2013-04-05 12:27:00,
2013-04-05 08:42:00,41.2,40.0,29.97,NNW,344,0.0,1.0,94,0.00,,,0.00,weatherlink.com 1.10,2013-04-05 12:42:00,
2013-04-05 08:57:00,41.6,40.0,29.98,NNW,342,0.0,2.0,94,0.00,,,0.00,weatherlink.com 1.10,2013-04-05 12:57:00,
2013-04-05 09:12:00,42.1,40.0,29.98,WNW,302,0.0,4.0,93,0.00,,,0.00,weatherlink.com 1.10,2013-04-05 13:12:00,
2013-04-05 09:27:00,42.6,41.0,29.98,NNW,334,0.0,3.0,93,0.00,,,0.00,weatherlink.com 1.10,2013-04-05 13:27:00,
2013-04-05 09:42:00,43.2,41.0,29.98,WNW,301,0.0,3.0,92,0.00,,,0.00,weatherlink.com 1.10,2013-04-05 13:42:00,
2013-04-05 09:57:00,44.5,42.0,29.98,NE,54,0.0,4.0,90,0.00,,,0.00,weatherlink.com 1.10,2013-04-05 13:57:00,
2013-04-05 10:12:00,45.2,42.0,29.99,North,355,0.0,6.0,87,0.00,,,0.00,weatherlink.com 1.10,2013-04-05 14:12:00,
2013-04-05 10:27:00,46.0,42.0,29.99,ENE,61,0.0,4.0,87,0.00,,,0.00,weatherlink.com 1.10,2013-04-05 14:27:00,
2013-04-05 10:42:00,46.8,42.0,29.99,North,360,0.0,4.0,82,0.00,,,0.00,weatherlink.com 1.10,2013-04-05 14:42:00,
2013-04-05 10:57:00,47.7,43.0,29.99,WNW,303,2.0,4.0,83,0.00,,,0.00,weatherlink.com 1.10,2013-04-05 14:57:00,
2013-04-05 11:12:00,49.2,43.0,29.99,ENE,63,4.0,5.0,79,0.00,,,0.00,weatherlink.com 1.10,2013-04-05 15:12:00,
2013-04-05 11:27:00,50.5,44.0,29.99,ENE,66,0.0,7.0,78,0.00,,,0.00,weatherlink.com 1.10,2013-04-05 15:27:00,
2013-04-05 11:42:00,51.7,44.0,29.99,East,99,0.0,3.0,74,0.00,,,0.00,weatherlink.com 1.10,2013-04-05 15:42:00,
2013-04-05 11:57:00,52.3,44.0,29.99,ENE,76,0.0,3.0,72,0.00,,,0.00,weatherlink.com 1.10,2013-04-05 15:57:00,
2013-04-05 12:12:00,52.9,43.0,29.99,NNW,333,0.0,5.0,70,0.00,,,0.00,weatherlink.com 1.10,2013-04-05 16:12:00,
2013-04-05 12:27:00,53.9,44.0,29.98,East,90,0.0,3.0,69,0.00,,,0.00,weatherlink.com 1.10,2013-04-05 16:27:00,
2013-04-05 12:43:00,54.5,44.0,29.98,ENE,64,0.0,3.0,68,0.00,,,0.00,weatherlink.com 1.10,2013-04-05 16:43:00,
2013-04-05 12:58:00,55.9,45.0,29.97,SW,236,0.0,3.0,67,0.00,,,0.00,weatherlink.com 1.10,2013-04-05 16:58:00,
2013-04-05 13:13:00,55.4,43.0,29.97,ENE,78,0.0,6.0,64,0.00,,,0.00,weatherlink.com 1.10,2013-04-05 17:13:00,
2013-04-05 13:28:00,55.9,45.0,29.96,NNW,343,0.0,2.0,66,0.00,,,0.00,weatherlink.com 1.10,2013-04-05 17:28:00,
2013-04-05 13:43:00,57.5,44.0,29.96,WNW,295,0.0,4.0,60,0.00,,,0.00,weatherlink.com 1.10,2013-04-05 17:43:00,
2013-04-05 13:58:00,58.0,43.0,29.95,ENE,62,2.0,3.0,58,0.00,,,0.00,weatherlink.com 1.10,2013-04-05 17:58:00,
2013-04-05 14:13:00,58.1,44.0,29.94,WSW,250,0.0,2.0,59,0.00,,,0.00,weatherlink.com 1.10,2013-04-05 18:13:00,
2013-04-05 14:28:00,58.3,42.0,29.94,SW,230,1.0,3.0,56,0.00,,,0.00,weatherlink.com 1.10,2013-04-05 18:28:00,
2013-04-05 14:43:00,59.2,42.0,29.94,NE,38,0.0,4.0,53,0.00,,,0.00,weatherlink.com 1.10,2013-04-05 18:43:00,
2013-04-05 14:58:00,59.6,43.0,29.94,West,267,1.0,3.0,54,0.00,,,0.00,weatherlink.com 1.10,2013-04-05 18:58:00,
2013-04-05 15:13:00,60.5,43.0,29.94,SW,231,0.0,5.0,52,0.00,,,0.00,weatherlink.com 1.10,2013-04-05 19:13:00,
2013-04-05 15:28:00,61.2,42.0,29.93,WSW,252,0.0,4.0,50,0.00,,,0.00,weatherlink.com 1.10,2013-04-05 19:28:00,
2013-04-05 15:43:00,61.6,42.0,29.93,ENE,67,3.0,5.0,48,0.00,,,0.00,weatherlink.com 1.10,2013-04-05 19:43:00,
2013-04-05 15:58:00,61.3,41.0,29.92,WSW,249,0.0,4.0,48,0.00,,,0.00,weatherlink.com 1.10,2013-04-05 19:58:00,
2013-04-05 16:13:00,62.0,42.0,29.91,NE,46,0.0,5.0,48,0.00,,,0.00,weatherlink.com 1.10,2013-04-05 20:13:00,
2013-04-05 16:28:00,62.3,42.0,29.91,NE,47,1.0,6.0,47,0.00,,,0.00,weatherlink.com 1.10,2013-04-05 20:28:00,
2013-04-05 16:43:00,62.6,41.0,29.91,West,260,3.0,4.0,46,0.00,,,0.00,weatherlink.com 1.10,2013-04-05 20:43:00,
2013-04-05 16:58:00,62.6,41.0,29.91,NNE,23,3.0,3.0,45,0.00,,,0.00,weatherlink.com 1.10,2013-04-05 20:58:00,
2013-04-05 17:13:00,62.9,42.0,29.91,WNW,288,0.0,4.0,46,0.00,,,0.00,weatherlink.com 1.10,2013-04-05 21:13:00,
2013-04-05 17:28:00,63.2,40.0,29.91,West,281,0.0,3.0,43,0.00,,,0.00,weatherlink.com 1.10,2013-04-05 21:28:00,
2013-04-05 17:43:00,63.2,38.0,29.91,West,280,0.0,5.0,39,0.00,,,0.00,weatherlink.com 1.10,2013-04-05 21:43:00,
2013-04-05 17:58:00,63.5,37.0,29.92,NNE,30,0.0,5.0,37,0.00,,,0.00,weatherlink.com 1.10,2013-04-05 21:58:00,
2013-04-05 18:13:00,63.5,38.0,29.92,NNE,30,0.0,3.0,39,0.00,,,0.00,weatherlink.com 1.10,2013-04-05 22:13:00,
2013-04-05 18:28:00,63.5,38.0,29.92,NW,309,0.0,3.0,39,0.00,,,0.00,weatherlink.com 1.10,2013-04-05 22:28:00,
2013-04-05 18:43:00,63.2,38.0,29.92,NW,309,0.0,3.0,40,0.00,,,0.00,weatherlink.com 1.10,2013-04-05 22:43:00,
2013-04-05 18:58:00,62.9,40.0,29.93,WNW,292,0.0,2.0,43,0.00,,,0.00,weatherlink.com 1.10,2013-04-05 22:58:00,
2013-04-05 19:13:00,62.1,40.0,29.93,NE,49,0.0,0.0,44,0.00,,,0.00,weatherlink.com 1.10,2013-04-05 23:13:00,
2013-04-05 19:28:00,61.3,40.0,29.94,NE,51,0.0,1.0,45,0.00,,,0.00,weatherlink.com 1.10,2013-04-05 23:28:00,
2013-04-05 19:43:00,60.2,40.0,29.94,NE,51,0.0,0.0,48,0.00,,,0.00,weatherlink.com 1.10,2013-04-05 23:43:00,
2013-04-05 19:58:00,59.0,40.0,29.95,NE,51,0.0,0.0,50,0.00,,,0.00,weatherlink.com 1.10,2013-04-05 23:58:00,
2013-04-05 20:13:00,57.5,42.0,29.95,NE,51,0.0,0.0,56,0.00,,,0.00,weatherlink.com 1.10,2013-04-06 00:13:00,
2013-04-05 20:28:00,55.7,42.0,29.95,NE,51,0.0,0.0,61,0.00,,,0.00,weatherlink.com 1.10,2013-04-06 00:28:00,
2013-04-05 20:43:00,53.9,42.0,29.97,NE,53,0.0,0.0,65,0.00,,,0.00,weatherlink.com 1.10,2013-04-06 00:43:00,
2013-04-05 20:58:00,52.9,42.0,29.98,NE,53,0.0,0.0,67,0.00,,,0.00,weatherlink.com 1.10,2013-04-06 00:58:00,
2013-04-05 21:13:00,51.9,42.0,29.99,NE,53,0.0,0.0,70,0.00,,,0.00,weatherlink.com 1.10,2013-04-06 01:13:00,
2013-04-05 21:28:00,51.0,42.0,30.00,NE,53,0.0,0.0,72,0.00,,,0.00,weatherlink.com 1.10,2013-04-06 01:28:00,
2013-04-05 21:58:00,49.6,41.0,30.02,NE,53,0.0,0.0,72,0.00,,,0.00,weatherlink.com 1.10,2013-04-06 01:58:00,
2013-04-05 22:13:00,49.1,41.0,30.03,NE,53,0.0,0.0,74,0.00,,,0.00,weatherlink.com 1.10,2013-04-06 02:13:00,
2013-04-05 22:28:00,48.5,41.0,30.03,NE,53,0.0,0.0,75,0.00,,,0.00,weatherlink.com 1.10,2013-04-06 02:28:00,
2013-04-05 22:43:00,47.9,41.0,30.03,NE,53,0.0,0.0,76,0.00,,,0.00,weatherlink.com 1.10,2013-04-06 02:43:00,
2013-04-05 23:13:00,46.4,40.0,30.03,NE,53,0.0,0.0,77,0.00,,,0.00,weatherlink.com 1.10,2013-04-06 03:13:00,
2013-04-05 23:43:00,45.5,39.0,30.03,NE,53,0.0,0.0,77,0.00,,,0.00,weatherlink.com 1.10,2013-04-06 03:43:00,